Joplin, MT (59531)

9:59 AM MDT on May 06, 2015 (GMT -0600)
17 miles N. of Chester, MT; Mattson Bros Inc. Farms | | Change Station
CLOSE
Current Station
Personal Weather Station
Location: Chester, MT
Elevation: 3497 ft
Nearby Weather Stations

Elev 3497 ft 48.74 °N, 110.93 °W | Updated 7 minutes ago

Overcast
Overcast
43.0 °F
Feels Like 36 °F
N
15.0
Wind Variable Wind from North
Gusts 22.0 mph

Today
High -- | Low -- °F
--% Chance of Precip.
Yesterday
High -- | Low -- °F
Precip. -- in
5:55 AM 8:45 PM
Waning Gibbous, 93% visible
Pressure 29.93 in
Visibility 10.0 miles
Clouds Overcast 1900 ft
Windchill 36 °F
Dew Point 35 °F
Humidity 73%
Rainfall 0.00 in
Snow Depth Not available.
UV 2 out of 12
Pollen 8.80 out of 12
Air Quality Not available.
Flu Activity Local Activity
METAR KHVR 061553Z AUTO 30014KT 10SM OVC019 07/03 A2992 RMK AO2 SLP134 T00720028

More Conditions Fewer Conditions

Pressure 29.93 in
Visibility 10.0 miles
Clouds Overcast 1900 ft
Windchill 36 °F
Dew Point 35 °F
Humidity 73%
Rainfall 0.00 in
Snow Depth Not available.
UV 2 out of 12
Pollen 8.80 out of 12
Air Quality Not available.
Flu Activity Local Activity
METAR KHVR 061553Z AUTO 30014KT 10SM OVC019 07/03 A2992 RMK AO2 SLP134 T00720028

More Conditions Fewer Conditions

10-Day Weather Forecast

Almanac

Astronomy

May. 06, 2015 Rise Set
Actual Time
Civil Twilight
Nautical Twilight
Astronomical Twilight
Moon
Length of Visible Light
Length of Day
Tomorrow will be .
, % of the Moon is Illuminated

Today's Extremes

State Highs State Lows

Community

WunderPhotos

Upload Photos

1,818,938 photos uploaded!

WunderBlogs® & News

Nearby

Air Quality

  Air Quality AQ Index Pollutant
Not available.

Snow Depth

Station Depth Elevation

Earthquake Activity

City Distance Mag. Time & Date
Minimum magnitude displayed is 2.5.

Coastal Water Temperatures

Place Temperature

Stations

Nearby Weather Stations

Station Location Temp. Windchill Dew Point Humidity Wind Precip. Elev Updated Type